sensor_id;sensor_type;location;lat;lon;timestamp;noise_LAeq;noise_LA_min;noise_LA_max;noise_LA01;noise_LA95
61095;Laerm;20450;49.074;9.158;2023-06-22T00:02:13;42.66;41.38;43.99;;
61095;Laerm;20450;49.074;9.158;2023-06-22T00:04:40;43.01;41.61;44.19;;
61095;Laerm;20450;49.074;9.158;2023-06-22T00:07:07;42.83;41.14;43.94;;
61095;Laerm;20450;49.074;9.158;2023-06-22T00:09:34;42.79;41.30;44.07;;
61095;Laerm;20450;49.074;9.158;2023-06-22T00:12:02;42.38;40.98;43.77;;
61095;Laerm;20450;49.074;9.158;2023-06-22T00:15:21;42.36;40.71;45.48;;
61095;Laerm;20450;49.074;9.158;2023-06-22T00:17:52;42.39;40.71;43.63;;
61095;Laerm;20450;49.074;9.158;2023-06-22T00:20:20;42.24;40.53;43.86;;
61095;Laerm;20450;49.074;9.158;2023-06-22T00:22:47;42.15;40.80;43.72;;
61095;Laerm;20450;49.074;9.158;2023-06-22T00:25:15;42.32;40.53;48.40;;
61095;Laerm;20450;49.074;9.158;2023-06-22T00:27:42;48.50;39.58;80.23;;
61095;Laerm;20450;49.074;9.158;2023-06-22T00:30:11;42.18;40.62;43.99;;
61095;Laerm;20450;49.074;9.158;2023-06-22T00:32:38;42.10;40.43;45.23;;
61095;Laerm;20450;49.074;9.158;2023-06-22T00:35:08;42.20;40.43;43.58;;
61095;Laerm;20450;49.074;9.158;2023-06-22T00:37:35;42.51;41.22;43.99;;
61095;Laerm;20450;49.074;9.158;2023-06-22T00:40:03;42.20;40.23;43.90;;
61095;Laerm;20450;49.074;9.158;2023-06-22T00:42:30;41.62;39.70;42.88;;
61095;Laerm;20450;49.074;9.158;2023-06-22T00:44:58;41.37;39.70;42.71;;
61095;Laerm;20450;49.074;9.158;2023-06-22T00:47:27;41.69;40.03;43.04;;
61095;Laerm;20450;49.074;9.158;2023-06-22T00:49:54;41.59;39.92;50.09;;
61095;Laerm;20450;49.074;9.158;2023-06-22T00:52:24;41.27;39.70;42.59;;
61095;Laerm;20450;49.074;9.158;2023-06-22T00:54:52;41.11;39.70;42.47;;
61095;Laerm;20450;49.074;9.158;2023-06-22T00:57:20;41.08;39.21;43.19;;
61095;Laerm;20450;49.074;9.158;2023-06-22T00:59:48;40.92;38.67;42.41;;
61095;Laerm;20450;49.074;9.158;2023-06-22T01:02:16;40.62;38.52;42.47;;
61095;Laerm;20450;49.074;9.158;2023-06-22T01:04:43;40.01;38.21;41.68;;
61095;Laerm;20450;49.074;9.158;2023-06-22T01:07:19;39.85;37.70;42.88;;
61095;Laerm;20450;49.074;9.158;2023-06-22T01:10:00;40.35;37.70;42.82;;
61095;Laerm;20450;49.074;9.158;2023-06-22T01:12:38;40.65;38.52;42.22;;
61095;Laerm;20450;49.074;9.158;2023-06-22T01:15:13;40.89;38.81;42.53;;
61095;Laerm;20450;49.074;9.158;2023-06-22T01:17:44;40.73;38.81;42.59;;
61095;Laerm;20450;49.074;9.158;2023-06-22T01:20:15;40.59;38.67;46.40;;
61095;Laerm;20450;49.074;9.158;2023-06-22T01:23:01;40.17;38.05;42.16;;
61095;Laerm;20450;49.074;9.158;2023-06-22T01:25:46;40.04;37.70;44.27;;
61095;Laerm;20450;49.074;9.158;2023-06-22T01:31:19;40.06;37.32;46.03;;
61095;Laerm;20450;49.074;9.158;2023-06-22T01:33:52;40.08;37.87;42.35;;
61095;Laerm;20450;49.074;9.158;2023-06-22T01:36:22;40.60;38.05;45.01;;
61095;Laerm;20450;49.074;9.158;2023-06-22T01:38:53;39.94;37.12;41.89;;
61095;Laerm;20450;49.074;9.158;2023-06-22T01:41:23;39.57;37.32;41.30;;
61095;Laerm;20450;49.074;9.158;2023-06-22T01:43:53;39.77;37.12;42.88;;
61095;Laerm;20450;49.074;9.158;2023-06-22T01:46:23;39.99;37.70;43.29;;
61095;Laerm;20450;49.074;9.158;2023-06-22T01:48:51;40.03;37.12;41.75;;
61095;Laerm;20450;49.074;9.158;2023-06-22T01:51:20;40.10;37.32;44.43;;
61095;Laerm;20450;49.074;9.158;2023-06-22T01:53:47;40.27;37.70;43.63;;
61095;Laerm;20450;49.074;9.158;2023-06-22T01:56:17;39.93;37.70;41.53;;
61095;Laerm;20450;49.074;9.158;2023-06-22T01:58:53;54.74;38.05;91.00;;
61095;Laerm;20450;49.074;9.158;2023-06-22T02:01:53;39.98;37.52;42.22;;
61095;Laerm;20450;49.074;9.158;2023-06-22T02:04:27;40.62;37.52;43.86;;
61095;Laerm;20450;49.074;9.158;2023-06-22T02:07:01;40.15;36.91;44.65;;
61095;Laerm;20450;49.074;9.158;2023-06-22T02:09:38;39.93;37.52;41.75;;
61095;Laerm;20450;49.074;9.158;2023-06-22T02:12:17;39.91;37.12;44.31;;
61095;Laerm;20450;49.074;9.158;2023-06-22T02:14:47;39.68;36.45;41.46;;
61095;Laerm;20450;49.074;9.158;2023-06-22T02:17:18;39.95;37.52;43.29;;
61095;Laerm;20450;49.074;9.158;2023-06-22T02:19:45;40.25;37.88;43.81;;
61095;Laerm;20450;49.074;9.158;2023-06-22T02:22:14;40.21;37.70;45.91;;
61095;Laerm;20450;49.074;9.158;2023-06-22T02:24:42;40.21;37.87;46.23;;
61095;Laerm;20450;49.074;9.158;2023-06-22T02:27:09;40.92;37.52;56.01;;
61095;Laerm;20450;49.074;9.158;2023-06-22T02:29:37;40.28;37.52;45.54;;
61095;Laerm;20450;49.074;9.158;2023-06-22T02:32:04;40.68;37.52;45.89;;
61095;Laerm;20450;49.074;9.158;2023-06-22T02:34:35;40.48;37.88;45.91;;
61095;Laerm;20450;49.074;9.158;2023-06-22T02:37:02;40.60;37.70;47.16;;
61095;Laerm;20450;49.074;9.158;2023-06-22T02:39:29;40.15;37.32;47.32;;
61095;Laerm;20450;49.074;9.158;2023-06-22T02:41:57;40.34;37.12;45.86;;
61095;Laerm;20450;49.074;9.158;2023-06-22T02:44:24;40.68;37.52;46.43;;
61095;Laerm;20450;49.074;9.158;2023-06-22T02:46:51;40.64;37.70;46.25;;
61095;Laerm;20450;49.074;9.158;2023-06-22T02:49:18;40.94;38.21;47.24;;
61095;Laerm;20450;49.074;9.158;2023-06-22T02:51:49;40.72;37.88;46.55;;
61095;Laerm;20450;49.074;9.158;2023-06-22T02:54:19;42.92;37.12;56.87;;
61095;Laerm;20450;49.074;9.158;2023-06-22T02:56:49;43.61;37.70;57.16;;
61095;Laerm;20450;49.074;9.158;2023-06-22T02:59:17;40.17;37.52;42.88;;
61095;Laerm;20450;49.074;9.158;2023-06-22T03:01:45;41.39;37.52;52.75;;
61095;Laerm;20450;49.074;9.158;2023-06-22T03:04:20;41.12;37.70;52.36;;
61095;Laerm;20450;49.074;9.158;2023-06-22T03:06:49;41.14;37.52;48.51;;
61095;Laerm;20450;49.074;9.158;2023-06-22T03:09:17;41.05;37.52;49.62;;
61095;Laerm;20450;49.074;9.158;2023-06-22T03:11:50;40.48;37.70;45.36;;
61095;Laerm;20450;49.074;9.158;2023-06-22T03:14:30;40.45;37.88;45.11;;
61095;Laerm;20450;49.074;9.158;2023-06-22T03:17:07;40.83;37.70;45.45;;
61095;Laerm;20450;49.074;9.158;2023-06-22T03:22:59;40.74;37.70;56.09;;
61095;Laerm;20450;49.074;9.158;2023-06-22T03:29:34;40.61;37.70;44.51;;
61095;Laerm;20450;49.074;9.158;2023-06-22T03:32:02;41.16;37.70;46.82;;
61095;Laerm;20450;49.074;9.158;2023-06-22T03:34:31;40.49;36.91;43.39;;
61095;Laerm;20450;49.074;9.158;2023-06-22T03:36:58;40.53;37.32;43.05;;
61095;Laerm;20450;49.074;9.158;2023-06-22T03:39:50;41.01;37.52;44.87;;
61095;Laerm;20450;49.074;9.158;2023-06-22T03:42:18;40.97;37.52;45.14;;
61095;Laerm;20450;49.074;9.158;2023-06-22T03:44:46;41.14;38.21;55.15;;
61095;Laerm;20450;49.074;9.158;2023-06-22T03:47:13;40.85;38.05;49.15;;
61095;Laerm;20450;49.074;9.158;2023-06-22T03:49:41;40.82;37.70;45.04;;
61095;Laerm;20450;49.074;9.158;2023-06-22T03:52:08;40.79;37.70;44.87;;
61095;Laerm;20450;49.074;9.158;2023-06-22T03:54:34;40.66;37.88;44.19;;
61095;Laerm;20450;49.074;9.158;2023-06-22T03:57:04;40.67;38.05;44.23;;
61095;Laerm;20450;49.074;9.158;2023-06-22T03:59:32;40.89;38.05;48.66;;
61095;Laerm;20450;49.074;9.158;2023-06-22T04:01:58;41.17;38.05;44.94;;
61095;Laerm;20450;49.074;9.158;2023-06-22T04:04:25;42.04;39.58;46.05;;
61095;Laerm;20450;49.074;9.158;2023-06-22T04:10:37;41.19;38.37;47.34;;
61095;Laerm;20450;49.074;9.158;2023-06-22T04:13:06;41.01;38.05;45.11;;
61095;Laerm;20450;49.074;9.158;2023-06-22T04:15:33;41.39;38.67;46.15;;
61095;Laerm;20450;49.074;9.158;2023-06-22T04:18:01;41.39;38.21;50.09;;
61095;Laerm;20450;49.074;9.158;2023-06-22T04:20:29;41.52;38.67;47.38;;
61095;Laerm;20450;49.074;9.158;2023-06-22T04:22:56;41.85;38.95;44.35;;
61095;Laerm;20450;49.074;9.158;2023-06-22T04:25:34;44.36;41.82;55.58;;
61095;Laerm;20450;49.074;9.158;2023-06-22T04:28:03;42.64;38.81;55.04;;
61095;Laerm;20450;49.074;9.158;2023-06-22T04:30:32;42.57;39.21;51.80;;
61095;Laerm;20450;49.074;9.158;2023-06-22T04:32:59;42.54;39.92;45.60;;
61095;Laerm;20450;49.074;9.158;2023-06-22T04:35:26;41.87;38.95;51.48;;
61095;Laerm;20450;49.074;9.158;2023-06-22T04:37:55;41.49;38.81;44.31;;
61095;Laerm;20450;49.074;9.158;2023-06-22T04:40:23;41.63;38.95;44.39;;
61095;Laerm;20450;49.074;9.158;2023-06-22T04:42:50;41.77;37.70;51.02;;
61095;Laerm;20450;49.074;9.158;2023-06-22T04:45:17;41.52;38.37;49.10;;
61095;Laerm;20450;49.074;9.158;2023-06-22T04:47:45;41.63;38.52;48.94;;
61095;Laerm;20450;49.074;9.158;2023-06-22T04:50:12;42.00;38.95;54.63;;
61095;Laerm;20450;49.074;9.158;2023-06-22T04:52:40;41.18;38.52;44.47;;
61095;Laerm;20450;49.074;9.158;2023-06-22T04:55:07;42.26;38.47;62.96;;
61095;Laerm;20450;49.074;9.158;2023-06-22T04:57:34;41.66;38.52;46.35;;
61095;Laerm;20450;49.074;9.158;2023-06-22T05:00:02;41.74;37.70;51.17;;
61095;Laerm;20450;49.074;9.158;2023-06-22T05:02:30;41.68;38.21;47.68;;
61095;Laerm;20450;49.074;9.158;2023-06-22T05:04:58;41.94;38.37;49.13;;
61095;Laerm;20450;49.074;9.158;2023-06-22T05:07:38;41.86;38.52;48.66;;
61095;Laerm;20450;49.074;9.158;2023-06-22T05:10:08;41.51;38.21;47.93;;
61095;Laerm;20450;49.074;9.158;2023-06-22T05:12:36;42.53;38.52;55.48;;
61095;Laerm;20450;49.074;9.158;2023-06-22T05:15:05;41.87;38.21;53.80;;
61095;Laerm;20450;49.074;9.158;2023-06-22T05:17:32;41.80;38.05;57.87;;
61095;Laerm;20450;49.074;9.158;2023-06-22T05:20:01;41.57;38.05;48.94;;
61095;Laerm;20450;49.074;9.158;2023-06-22T05:22:29;42.43;38.81;50.56;;
61095;Laerm;20450;49.074;9.158;2023-06-22T05:24:56;41.81;37.70;47.52;;
61095;Laerm;20450;49.074;9.158;2023-06-22T05:27:24;42.73;38.81;59.53;;
61095;Laerm;20450;49.074;9.158;2023-06-22T05:29:51;42.06;39.08;53.10;;
61095;Laerm;20450;49.074;9.158;2023-06-22T05:32:18;42.48;37.88;54.48;;
61095;Laerm;20450;49.074;9.158;2023-06-22T05:34:45;42.44;39.58;51.82;;
61095;Laerm;20450;49.074;9.158;2023-06-22T05:37:14;42.10;38.67;51.66;;
61095;Laerm;20450;49.074;9.158;2023-06-22T05:39:41;42.11;38.52;48.29;;
61095;Laerm;20450;49.074;9.158;2023-06-22T05:42:08;42.53;38.52;51.98;;
61095;Laerm;20450;49.074;9.158;2023-06-22T05:44:37;42.02;38.52;54.57;;
61095;Laerm;20450;49.074;9.158;2023-06-22T05:47:04;42.17;39.08;47.44;;
61095;Laerm;20450;49.074;9.158;2023-06-22T05:49:33;42.04;38.21;52.54;;
61095;Laerm;20450;49.074;9.158;2023-06-22T05:52:02;41.74;38.52;53.11;;
61095;Laerm;20450;49.074;9.158;2023-06-22T05:54:31;42.26;37.88;51.18;;
61095;Laerm;20450;49.074;9.158;2023-06-22T05:56:59;41.79;38.21;51.79;;
61095;Laerm;20450;49.074;9.158;2023-06-22T05:59:26;41.82;38.32;49.47;;
61095;Laerm;20450;49.074;9.158;2023-06-22T06:01:53;42.34;38.95;52.23;;
61095;Laerm;20450;49.074;9.158;2023-06-22T06:04:20;42.38;38.81;49.33;;
61095;Laerm;20450;49.074;9.158;2023-06-22T06:06:48;42.41;38.21;60.06;;
61095;Laerm;20450;49.074;9.158;2023-06-22T06:09:15;41.77;38.74;50.94;;
61095;Laerm;20450;49.074;9.158;2023-06-22T06:11:43;41.90;39.21;51.55;;
61095;Laerm;20450;49.074;9.158;2023-06-22T06:14:10;41.94;38.67;50.42;;
61095;Laerm;20450;49.074;9.158;2023-06-22T06:16:37;42.10;38.52;51.48;;
61095;Laerm;20450;49.074;9.158;2023-06-22T06:19:05;42.92;39.08;55.21;;
61095;Laerm;20450;49.074;9.158;2023-06-22T06:21:32;42.37;38.95;49.59;;
61095;Laerm;20450;49.074;9.158;2023-06-22T06:24:00;41.95;38.37;49.34;;
61095;Laerm;20450;49.074;9.158;2023-06-22T06:26:27;42.19;39.46;50.77;;
61095;Laerm;20450;49.074;9.158;2023-06-22T06:28:56;41.73;38.95;47.65;;
61095;Laerm;20450;49.074;9.158;2023-06-22T06:31:23;42.39;39.34;52.88;;
61095;Laerm;20450;49.074;9.158;2023-06-22T06:33:51;42.49;38.52;50.03;;
61095;Laerm;20450;49.074;9.158;2023-06-22T06:36:18;50.16;38.95;60.03;;
61095;Laerm;20450;49.074;9.158;2023-06-22T06:38:46;55.79;47.32;63.87;;
61095;Laerm;20450;49.074;9.158;2023-06-22T06:41:16;56.47;47.48;62.11;;
61095;Laerm;20450;49.074;9.158;2023-06-22T06:43:43;55.54;47.28;64.13;;
61095;Laerm;20450;49.074;9.158;2023-06-22T06:46:11;50.55;39.34;56.36;;
61095;Laerm;20450;49.074;9.158;2023-06-22T06:48:39;51.23;38.67;59.18;;
61095;Laerm;20450;49.074;9.158;2023-06-22T06:51:06;50.36;47.04;55.03;;
61095;Laerm;20450;49.074;9.158;2023-06-22T06:53:33;49.42;39.92;60.38;;
61095;Laerm;20450;49.074;9.158;2023-06-22T06:56:01;46.16;40.33;52.51;;
61095;Laerm;20450;49.074;9.158;2023-06-22T06:58:28;44.49;40.13;63.44;;
61095;Laerm;20450;49.074;9.158;2023-06-22T07:00:56;42.95;40.33;56.64;;
61095;Laerm;20450;49.074;9.158;2023-06-22T07:03:24;43.51;39.34;50.73;;
61095;Laerm;20450;49.074;9.158;2023-06-22T07:05:51;42.32;38.37;53.98;;
61095;Laerm;20450;49.074;9.158;2023-06-22T07:08:19;42.02;39.08;49.27;;
61095;Laerm;20450;49.074;9.158;2023-06-22T07:10:48;42.99;39.46;49.47;;
61095;Laerm;20450;49.074;9.158;2023-06-22T07:13:20;41.70;38.52;46.52;;
61095;Laerm;20450;49.074;9.158;2023-06-22T07:15:47;42.74;39.58;53.13;;
61095;Laerm;20450;49.074;9.158;2023-06-22T07:18:14;42.21;38.81;55.18;;
61095;Laerm;20450;49.074;9.158;2023-06-22T07:20:43;42.07;39.21;49.33;;
61095;Laerm;20450;49.074;9.158;2023-06-22T07:23:10;41.78;39.21;50.60;;
61095;Laerm;20450;49.074;9.158;2023-06-22T07:25:37;46.27;39.58;69.38;;
61095;Laerm;20450;49.074;9.158;2023-06-22T07:28:07;44.46;39.81;64.76;;
61095;Laerm;20450;49.074;9.158;2023-06-22T07:30:34;43.89;39.21;58.28;;
61095;Laerm;20450;49.074;9.158;2023-06-22T07:33:02;44.74;39.81;69.07;;
61095;Laerm;20450;49.074;9.158;2023-06-22T07:35:30;43.89;40.62;61.15;;
61095;Laerm;20450;49.074;9.158;2023-06-22T07:38:00;43.10;39.34;50.75;;
61095;Laerm;20450;49.074;9.158;2023-06-22T07:40:32;43.92;40.98;51.73;;
61095;Laerm;20450;49.074;9.158;2023-06-22T07:43:00;43.05;40.33;50.85;;
61095;Laerm;20450;49.074;9.158;2023-06-22T07:45:27;42.35;39.58;52.22;;
61095;Laerm;20450;49.074;9.158;2023-06-22T07:47:54;44.07;39.81;57.63;;
61095;Laerm;20450;49.074;9.158;2023-06-22T07:50:22;44.39;40.53;57.85;;
61095;Laerm;20450;49.074;9.158;2023-06-22T07:52:49;43.09;40.45;48.55;;
61095;Laerm;20450;49.074;9.158;2023-06-22T07:55:18;43.13;39.46;55.11;;
61095;Laerm;20450;49.074;9.158;2023-06-22T07:57:49;43.85;39.92;55.74;;
61095;Laerm;20450;49.074;9.158;2023-06-22T08:00:17;43.74;39.08;51.55;;
61095;Laerm;20450;49.074;9.158;2023-06-22T08:02:46;44.22;40.98;51.61;;
61095;Laerm;20450;49.074;9.158;2023-06-22T08:05:15;44.27;40.53;51.31;;
61095;Laerm;20450;49.074;9.158;2023-06-22T08:07:48;43.74;40.33;50.63;;
61095;Laerm;20450;49.074;9.158;2023-06-22T08:10:18;43.92;40.33;51.01;;
61095;Laerm;20450;49.074;9.158;2023-06-22T08:12:45;43.54;40.03;50.41;;
61095;Laerm;20450;49.074;9.158;2023-06-22T08:15:13;44.05;40.80;48.45;;
61095;Laerm;20450;49.074;9.158;2023-06-22T08:17:40;44.38;40.53;50.82;;
61095;Laerm;20450;49.074;9.158;2023-06-22T08:20:10;44.27;39.21;54.27;;
61095;Laerm;20450;49.074;9.158;2023-06-22T08:22:38;42.63;39.08;51.21;;
61095;Laerm;20450;49.074;9.158;2023-06-22T08:25:07;44.25;40.71;52.04;;
61095;Laerm;20450;49.074;9.158;2023-06-22T08:27:37;44.43;40.62;56.39;;
61095;Laerm;20450;49.074;9.158;2023-06-22T08:30:06;43.89;40.98;53.90;;
61095;Laerm;20450;49.074;9.158;2023-06-22T08:32:34;45.86;39.81;57.74;;
61095;Laerm;20450;49.074;9.158;2023-06-22T08:35:02;44.25;40.98;52.37;;
61095;Laerm;20450;49.074;9.158;2023-06-22T08:37:30;43.54;39.70;50.22;;
61095;Laerm;20450;49.074;9.158;2023-06-22T08:40:00;43.92;39.81;51.30;;
61095;Laerm;20450;49.074;9.158;2023-06-22T08:42:27;44.14;40.62;52.80;;
61095;Laerm;20450;49.074;9.158;2023-06-22T08:44:55;44.05;41.30;54.06;;
61095;Laerm;20450;49.074;9.158;2023-06-22T08:47:23;43.62;39.23;50.56;;
61095;Laerm;20450;49.074;9.158;2023-06-22T08:49:50;43.07;39.81;50.24;;
61095;Laerm;20450;49.074;9.158;2023-06-22T08:52:18;43.41;40.23;50.98;;
61095;Laerm;20450;49.074;9.158;2023-06-22T08:54:45;44.38;39.57;54.32;;
61095;Laerm;20450;49.074;9.158;2023-06-22T08:57:13;43.61;38.95;53.80;;
61095;Laerm;20450;49.074;9.158;2023-06-22T08:59:40;42.51;39.08;49.63;;
61095;Laerm;20450;49.074;9.158;2023-06-22T09:02:08;42.52;39.08;49.02;;
61095;Laerm;20450;49.074;9.158;2023-06-22T09:04:35;44.48;40.62;56.42;;
61095;Laerm;20450;49.074;9.158;2023-06-22T09:07:05;42.26;39.68;52.91;;
61095;Laerm;20450;49.074;9.158;2023-06-22T09:09:32;42.30;39.81;45.36;;
61095;Laerm;20450;49.074;9.158;2023-06-22T09:11:59;42.40;38.95;50.36;;
61095;Laerm;20450;49.074;9.158;2023-06-22T09:14:26;42.46;37.88;51.71;;
61095;Laerm;20450;49.074;9.158;2023-06-22T09:16:54;42.33;38.67;51.51;;
61095;Laerm;20450;49.074;9.158;2023-06-22T09:19:22;42.63;38.81;52.09;;
61095;Laerm;20450;49.074;9.158;2023-06-22T09:21:49;44.23;39.34;67.82;;
61095;Laerm;20450;49.074;9.158;2023-06-22T09:24:17;43.12;39.21;55.76;;
61095;Laerm;20450;49.074;9.158;2023-06-22T09:26:44;44.13;39.21;58.12;;
61095;Laerm;20450;49.074;9.158;2023-06-22T09:29:37;42.34;38.05;51.79;;
61095;Laerm;20450;49.074;9.158;2023-06-22T09:32:06;42.13;38.52;47.88;;
61095;Laerm;20450;49.074;9.158;2023-06-22T09:34:36;41.74;38.52;47.12;;
61095;Laerm;20450;49.074;9.158;2023-06-22T09:37:03;42.57;38.67;50.77;;
61095;Laerm;20450;49.074;9.158;2023-06-22T09:43:14;42.12;38.21;50.01;;
61095;Laerm;20450;49.074;9.158;2023-06-22T09:45:41;42.74;39.34;52.41;;
61095;Laerm;20450;49.074;9.158;2023-06-22T09:48:08;43.18;39.70;52.29;;
61095;Laerm;20450;49.074;9.158;2023-06-22T09:50:37;42.28;38.52;49.36;;
61095;Laerm;20450;49.074;9.158;2023-06-22T09:53:04;42.00;38.95;50.23;;
61095;Laerm;20450;49.074;9.158;2023-06-22T09:55:31;42.21;39.21;50.56;;
61095;Laerm;20450;49.074;9.158;2023-06-22T09:57:58;42.47;39.21;48.31;;
61095;Laerm;20450;49.074;9.158;2023-06-22T10:00:25;42.04;38.67;53.32;;
61095;Laerm;20450;49.074;9.158;2023-06-22T10:02:52;43.22;40.62;55.17;;
61095;Laerm;20450;49.074;9.158;2023-06-22T10:05:19;42.36;39.58;46.62;;
61095;Laerm;20450;49.074;9.158;2023-06-22T10:07:48;42.25;39.34;50.42;;
61095;Laerm;20450;49.074;9.158;2023-06-22T10:13:57;43.76;38.67;59.93;;
61095;Laerm;20450;49.074;9.158;2023-06-22T10:16:30;42.58;39.81;54.48;;
61095;Laerm;20450;49.074;9.158;2023-06-22T10:18:59;42.09;38.95;50.38;;
61095;Laerm;20450;49.074;9.158;2023-06-22T10:21:26;41.89;39.21;49.38;;
61095;Laerm;20450;49.074;9.158;2023-06-22T10:27:37;43.38;40.03;56.12;;
61095;Laerm;20450;49.074;9.158;2023-06-22T10:30:06;42.67;39.92;51.31;;
61095;Laerm;20450;49.074;9.158;2023-06-22T10:32:33;43.88;41.14;54.23;;
61095;Laerm;20450;49.074;9.158;2023-06-22T10:35:19;43.70;39.92;59.96;;
61095;Laerm;20450;49.074;9.158;2023-06-22T10:37:49;42.31;39.68;48.54;;
61095;Laerm;20450;49.074;9.158;2023-06-22T10:40:17;42.55;39.70;48.71;;
61095;Laerm;20450;49.074;9.158;2023-06-22T10:42:46;43.11;40.80;51.77;;
61095;Laerm;20450;49.074;9.158;2023-06-22T10:45:13;43.16;40.43;48.74;;
61095;Laerm;20450;49.074;9.158;2023-06-22T10:48:04;43.29;39.92;51.83;;
61095;Laerm;20450;49.074;9.158;2023-06-22T10:50:32;42.77;38.87;52.18;;
61095;Laerm;20450;49.074;9.158;2023-06-22T10:53:00;42.11;38.95;52.76;;
61095;Laerm;20450;49.074;9.158;2023-06-22T10:55:31;42.67;39.46;52.08;;
61095;Laerm;20450;49.074;9.158;2023-06-22T10:58:19;42.16;38.67;48.77;;
61095;Laerm;20450;49.074;9.158;2023-06-22T11:00:46;42.47;39.21;49.18;;
61095;Laerm;20450;49.074;9.158;2023-06-22T11:03:13;43.75;40.03;55.93;;
61095;Laerm;20450;49.074;9.158;2023-06-22T11:06:06;42.58;39.46;50.88;;
61095;Laerm;20450;49.074;9.158;2023-06-22T11:08:33;42.47;38.37;52.42;;
61095;Laerm;20450;49.074;9.158;2023-06-22T11:11:00;42.77;39.92;61.25;;
61095;Laerm;20450;49.074;9.158;2023-06-22T11:13:29;43.18;39.58;51.40;;
61095;Laerm;20450;49.074;9.158;2023-06-22T11:16:11;43.66;40.62;49.81;;
61095;Laerm;20450;49.074;9.158;2023-06-22T11:18:38;43.51;40.53;50.25;;
61095;Laerm;20450;49.074;9.158;2023-06-22T11:21:07;42.64;38.67;52.25;;
61095;Laerm;20450;49.074;9.158;2023-06-22T11:23:34;42.64;39.81;53.76;;
61095;Laerm;20450;49.074;9.158;2023-06-22T11:26:03;43.36;39.81;49.47;;
61095;Laerm;20450;49.074;9.158;2023-06-22T11:28:31;44.14;41.14;49.38;;
61095;Laerm;20450;49.074;9.158;2023-06-22T11:31:49;43.16;39.21;57.51;;
61095;Laerm;20450;49.074;9.158;2023-06-22T11:34:17;42.43;39.34;54.69;;
61095;Laerm;20450;49.074;9.158;2023-06-22T11:36:44;42.92;40.33;50.48;;
61095;Laerm;20450;49.074;9.158;2023-06-22T11:39:25;43.01;40.13;49.25;;
61095;Laerm;20450;49.074;9.158;2023-06-22T11:42:08;42.65;39.34;49.55;;
61095;Laerm;20450;49.074;9.158;2023-06-22T11:44:37;42.97;40.03;49.98;;
61095;Laerm;20450;49.074;9.158;2023-06-22T11:47:05;42.43;39.58;51.18;;
61095;Laerm;20450;49.074;9.158;2023-06-22T11:49:33;42.56;39.58;52.57;;
61095;Laerm;20450;49.074;9.158;2023-06-22T11:52:04;45.74;40.98;59.24;;
61095;Laerm;20450;49.074;9.158;2023-06-22T11:54:31;43.04;40.33;55.34;;
61095;Laerm;20450;49.074;9.158;2023-06-22T12:00:47;41.89;37.52;52.64;;
61095;Laerm;20450;49.074;9.158;2023-06-22T12:03:18;42.95;39.58;50.89;;
61095;Laerm;20450;49.074;9.158;2023-06-22T12:05:49;43.78;39.70;48.94;;
61095;Laerm;20450;49.074;9.158;2023-06-22T12:08:17;42.41;38.37;55.98;;
61095;Laerm;20450;49.074;9.158;2023-06-22T12:10:46;42.65;39.21;48.54;;
61095;Laerm;20450;49.074;9.158;2023-06-22T12:13:41;42.36;39.58;48.57;;
61095;Laerm;20450;49.074;9.158;2023-06-22T12:16:10;42.06;38.81;49.63;;
61095;Laerm;20450;49.074;9.158;2023-06-22T12:18:38;42.40;38.52;54.32;;
61095;Laerm;20450;49.074;9.158;2023-06-22T12:21:05;42.25;38.87;47.26;;
61095;Laerm;20450;49.074;9.158;2023-06-22T12:23:32;42.02;38.05;46.25;;
61095;Laerm;20450;49.074;9.158;2023-06-22T12:28:40;42.41;39.21;48.94;;
61095;Laerm;20450;49.074;9.158;2023-06-22T12:31:07;41.53;37.70;59.23;;
61095;Laerm;20450;49.074;9.158;2023-06-22T12:33:51;42.24;38.81;49.45;;
61095;Laerm;20450;49.074;9.158;2023-06-22T12:36:18;42.39;39.08;48.26;;
61095;Laerm;20450;49.074;9.158;2023-06-22T12:38:45;41.98;38.52;51.14;;
61095;Laerm;20450;49.074;9.158;2023-06-22T12:41:14;42.09;37.88;52.98;;
61095;Laerm;20450;49.074;9.158;2023-06-22T12:44:07;42.30;38.37;47.34;;
61095;Laerm;20450;49.074;9.158;2023-06-22T12:46:35;42.31;39.08;47.00;;
61095;Laerm;20450;49.074;9.158;2023-06-22T12:49:03;41.51;38.05;50.34;;
61095;Laerm;20450;49.074;9.158;2023-06-22T12:55:19;41.26;38.05;46.18;;
61095;Laerm;20450;49.074;9.158;2023-06-22T12:57:46;40.89;37.70;46.87;;
61095;Laerm;20450;49.074;9.158;2023-06-22T13:00:14;42.08;38.67;53.18;;
61095;Laerm;20450;49.074;9.158;2023-06-22T13:02:41;42.65;39.34;49.39;;
61095;Laerm;20450;49.074;9.158;2023-06-22T13:05:11;42.08;37.70;51.05;;
61095;Laerm;20450;49.074;9.158;2023-06-22T13:07:38;41.53;38.37;49.58;;
61095;Laerm;20450;49.074;9.158;2023-06-22T13:10:30;44.86;37.88;61.31;;
61095;Laerm;20450;49.074;9.158;2023-06-22T13:12:58;41.88;37.52;47.14;;
61095;Laerm;20450;49.074;9.158;2023-06-22T13:15:26;42.13;39.46;48.16;;
61095;Laerm;20450;49.074;9.158;2023-06-22T13:17:55;42.93;39.34;48.55;;
61095;Laerm;20450;49.074;9.158;2023-06-22T13:20:48;42.45;39.46;49.73;;
61095;Laerm;20450;49.074;9.158;2023-06-22T13:23:16;42.07;38.95;53.44;;
61095;Laerm;20450;49.074;9.158;2023-06-22T13:25:43;42.30;39.21;54.26;;
61095;Laerm;20450;49.074;9.158;2023-06-22T13:28:11;42.27;39.08;47.54;;
61095;Laerm;20450;49.074;9.158;2023-06-22T13:30:53;44.52;40.71;67.37;;
61095;Laerm;20450;49.074;9.158;2023-06-22T13:37:23;44.24;39.81;55.26;;
61095;Laerm;20450;49.074;9.158;2023-06-22T13:39:50;42.84;39.34;49.83;;
61095;Laerm;20450;49.074;9.158;2023-06-22T13:42:17;47.54;39.46;64.02;;
61095;Laerm;20450;49.074;9.158;2023-06-22T13:45:03;42.44;40.13;46.91;;
61095;Laerm;20450;49.074;9.158;2023-06-22T13:47:56;42.70;39.92;54.57;;
61095;Laerm;20450;49.074;9.158;2023-06-22T13:50:43;42.57;39.81;50.58;;
61095;Laerm;20450;49.074;9.158;2023-06-22T13:53:12;42.75;39.46;53.70;;
61095;Laerm;20450;49.074;9.158;2023-06-22T13:55:40;42.65;38.81;51.90;;
61095;Laerm;20450;49.074;9.158;2023-06-22T13:58:07;42.22;39.46;48.74;;
61095;Laerm;20450;49.074;9.158;2023-06-22T14:00:34;42.22;39.21;52.89;;
61095;Laerm;20450;49.074;9.158;2023-06-22T14:03:28;46.54;39.34;64.53;;
61095;Laerm;20450;49.074;9.158;2023-06-22T14:05:55;41.94;38.67;49.06;;
61095;Laerm;20450;49.074;9.158;2023-06-22T14:08:25;42.43;38.81;52.54;;
61095;Laerm;20450;49.074;9.158;2023-06-22T14:11:08;42.09;39.34;47.38;;
61095;Laerm;20450;49.074;9.158;2023-06-22T14:13:36;41.91;39.21;48.61;;
61095;Laerm;20450;49.074;9.158;2023-06-22T14:16:05;42.74;39.08;53.54;;
61095;Laerm;20450;49.074;9.158;2023-06-22T14:18:41;42.76;38.05;53.61;;
61095;Laerm;20450;49.074;9.158;2023-06-22T14:21:08;43.07;38.81;57.50;;
61095;Laerm;20450;49.074;9.158;2023-06-22T14:23:37;42.15;39.58;46.18;;
61095;Laerm;20450;49.074;9.158;2023-06-22T14:26:04;47.10;39.34;67.62;;
61095;Laerm;20450;49.074;9.158;2023-06-22T14:28:43;42.59;38.67;48.70;;
61095;Laerm;20450;49.074;9.158;2023-06-22T14:31:12;42.42;39.21;51.13;;
61095;Laerm;20450;49.074;9.158;2023-06-22T14:33:39;43.00;40.03;49.38;;
61095;Laerm;20450;49.074;9.158;2023-06-22T14:36:06;42.33;38.67;48.70;;
61095;Laerm;20450;49.074;9.158;2023-06-22T14:38:37;42.42;39.34;50.95;;
61095;Laerm;20450;49.074;9.158;2023-06-22T14:41:04;42.47;39.58;50.26;;